createdAt,value
2019-05-22T00:01:10.780Z,30.67
2019-05-22T00:03:45.274Z,27.50
2019-05-22T00:06:16.792Z,28.77
2019-05-22T00:08:48.030Z,33.47
2019-05-22T00:11:19.586Z,30.83
2019-05-22T00:13:50.693Z,27.97
2019-05-22T00:16:22.082Z,27.50
2019-05-22T00:18:52.876Z,26.10
2019-05-22T00:21:22.700Z,27.07
2019-05-22T00:23:52.436Z,25.67
2019-05-22T00:26:23.261Z,25.33
2019-05-22T00:28:54.122Z,25.40
2019-05-22T00:31:23.800Z,26.30
2019-05-22T00:33:54.374Z,29.20
2019-05-22T00:36:24.273Z,26.27
2019-05-22T00:38:55.613Z,26.23
2019-05-22T00:41:26.899Z,25.47
2019-05-22T00:43:56.527Z,25.77
2019-05-22T00:46:26.436Z,24.40
2019-05-22T00:48:55.900Z,24.90
2019-05-22T00:51:36.938Z,24.77
2019-05-22T00:54:26.300Z,24.63
2019-05-22T00:56:57.641Z,23.50
2019-05-22T00:59:29.593Z,22.23
2019-05-22T01:02:17.802Z,22.53
2019-05-22T01:04:52.044Z,22.50
2019-05-22T01:07:29.861Z,22.97
2019-05-22T01:09:59.878Z,20.70
2019-05-22T01:12:34.012Z,21.73
2019-05-22T01:15:06.758Z,21.63
2019-05-22T01:17:36.767Z,22.20
2019-05-22T01:20:12.924Z,21.93
2019-05-22T01:22:42.582Z,21.60
2019-05-22T01:25:15.918Z,20.20
2019-05-22T01:27:47.144Z,20.10
2019-05-22T01:30:23.486Z,22.60
2019-05-22T01:32:54.974Z,21.70
2019-05-22T01:35:40.673Z,21.73
2019-05-22T01:38:12.545Z,22.30
2019-05-22T01:40:50.159Z,23.67
2019-05-22T01:43:21.649Z,22.93
2019-05-22T01:45:53.589Z,23.10
2019-05-22T01:48:36.757Z,24.33
2019-05-22T01:51:07.162Z,24.27
2019-05-22T01:53:40.871Z,23.83
2019-05-22T01:56:13.577Z,24.27
2019-05-22T01:58:45.186Z,25.50
2019-05-22T02:01:23.792Z,25.33
2019-05-22T02:03:55.381Z,23.73
2019-05-22T02:06:26.240Z,26.07
2019-05-22T02:09:02.885Z,24.47
2019-05-22T02:11:33.463Z,24.63
2019-05-22T02:14:12.320Z,26.20
2019-05-22T02:16:56.811Z,25.00
2019-05-22T02:19:20.709Z,23.73
2019-05-22T02:21:50.394Z,24.17
2019-05-22T02:24:20.195Z,23.60
2019-05-22T02:26:50.126Z,23.20
2019-05-22T02:29:21.216Z,24.63
2019-05-22T02:31:55.125Z,22.37
2019-05-22T02:34:22.643Z,21.90
2019-05-22T02:36:53.626Z,23.17
2019-05-22T02:39:30.466Z,22.37
2019-05-22T02:42:09.457Z,22.73
2019-05-22T02:44:39.119Z,20.30
2019-05-22T02:47:19.041Z,19.43
2019-05-22T02:49:43.091Z,20.43
2019-05-22T02:52:14.869Z,21.17
2019-05-22T02:54:45.506Z,21.00
2019-05-22T02:57:15.333Z,20.03
2019-05-22T02:59:45.579Z,20.13
2019-05-22T03:02:15.911Z,21.27
2019-05-22T03:05:03.584Z,20.33
2019-05-22T03:07:33.211Z,20.53
2019-05-22T03:10:03.402Z,20.30
2019-05-22T03:12:34.610Z,20.20
2019-05-22T03:15:10.971Z,19.30
2019-05-22T03:17:41.640Z,20.17
2019-05-22T03:20:13.767Z,20.07
2019-05-22T03:22:55.053Z,20.60
2019-05-22T03:25:27.073Z,19.77
2019-05-22T03:27:57.582Z,18.83
2019-05-22T03:30:34.066Z,19.03
2019-05-22T03:33:06.232Z,21.47
2019-05-22T03:35:47.812Z,19.13
2019-05-22T03:38:20.128Z,18.67
2019-05-22T03:40:52.119Z,19.73
2019-05-22T03:43:24.481Z,21.80
2019-05-22T03:45:56.175Z,23.67
2019-05-22T03:48:29.035Z,23.40
2019-05-22T03:51:11.955Z,25.30
2019-05-22T03:53:42.196Z,24.87
2019-05-22T03:56:12.541Z,22.63
2019-05-22T03:58:42.629Z,24.97
2019-05-22T04:01:12.422Z,24.97
2019-05-22T04:03:43.882Z,23.00
2019-05-22T04:06:14.502Z,23.87
2019-05-22T04:08:45.474Z,25.00
2019-05-22T04:11:16.558Z,23.30
2019-05-22T04:13:46.752Z,23.10
2019-05-22T04:16:23.633Z,24.50
2019-05-22T04:18:53.472Z,23.47
2019-05-22T04:21:23.213Z,21.40
2019-05-22T04:23:52.833Z,21.90
2019-05-22T04:26:22.762Z,21.70
2019-05-22T04:28:54.839Z,22.20
2019-05-22T04:31:36.493Z,23.90
2019-05-22T04:34:06.203Z,24.23
2019-05-22T04:36:36.149Z,24.60
2019-05-22T04:39:09.168Z,23.83
2019-05-22T04:41:38.819Z,23.70
2019-05-22T04:44:08.293Z,21.67
2019-05-22T04:46:38.186Z,21.90
2019-05-22T04:49:07.728Z,22.70
2019-05-22T04:51:38.983Z,22.47
2019-05-22T04:54:08.739Z,22.83
2019-05-22T04:56:38.950Z,21.10
2019-05-22T04:59:08.777Z,21.67
2019-05-22T05:01:38.513Z,22.93
2019-05-22T05:04:08.237Z,21.23
2019-05-22T05:06:38.458Z,22.57
2019-05-22T05:09:09.792Z,19.87
2019-05-22T05:11:39.716Z,20.03
2019-05-22T05:14:09.376Z,20.43
2019-05-22T05:16:39.032Z,19.60
2019-05-22T05:19:08.732Z,18.90
2019-05-22T05:21:38.797Z,19.73
2019-05-22T05:24:08.369Z,19.23
2019-05-22T05:26:39.182Z,17.17
2019-05-22T05:29:12.233Z,19.47
2019-05-22T05:31:42.240Z,18.60
2019-05-22T05:34:20.729Z,17.87
2019-05-22T05:36:50.443Z,17.33
2019-05-22T05:39:39.696Z,18.60
2019-05-22T05:42:09.563Z,18.70
2019-05-22T05:44:39.049Z,16.63
2019-05-22T05:47:09.192Z,16.47
2019-05-22T05:49:39.243Z,15.47
2019-05-22T05:52:10.494Z,15.20
2019-05-22T05:54:41.681Z,15.00
2019-05-22T05:57:34.225Z,14.60
2019-05-22T06:00:07.957Z,14.60
2019-05-22T06:02:37.490Z,16.43
2019-05-22T06:05:08.241Z,15.90
2019-05-22T06:07:38.383Z,15.30
2019-05-22T06:10:29.442Z,15.43
2019-05-22T06:13:00.662Z,15.87
2019-05-22T06:15:47.700Z,14.37
2019-05-22T06:18:34.895Z,14.67
2019-05-22T06:21:06.050Z,14.83
2019-05-22T06:23:42.213Z,15.13
2019-05-22T06:26:33.612Z,13.37
2019-05-22T06:29:04.896Z,16.00
2019-05-22T06:31:57.385Z,15.50
2019-05-22T06:34:27.509Z,14.37
2019-05-22T06:37:00.166Z,13.40
2019-05-22T06:39:31.301Z,13.40
2019-05-22T06:42:01.204Z,14.77
2019-05-22T06:44:33.745Z,14.03
2019-05-22T06:47:05.293Z,14.50
2019-05-22T06:49:37.460Z,13.07
2019-05-22T06:52:08.862Z,12.20
2019-05-22T06:54:38.816Z,11.53
2019-05-22T06:57:11.864Z,25.77
2019-05-22T06:59:43.549Z,11.90
2019-05-22T07:02:15.253Z,11.93
2019-05-22T07:04:46.444Z,11.87
2019-05-22T07:07:17.679Z,12.00
2019-05-22T07:09:48.336Z,14.13
2019-05-22T07:12:20.547Z,13.47
2019-05-22T07:15:06.690Z,13.33
2019-05-22T07:17:37.660Z,14.73
2019-05-22T07:20:08.610Z,11.73
2019-05-22T07:22:38.574Z,12.73
2019-05-22T07:25:09.494Z,11.83
2019-05-22T07:27:39.742Z,10.60
2019-05-22T07:30:10.089Z,9.90
2019-05-22T07:32:40.004Z,8.90
2019-05-22T07:35:10.524Z,9.30
2019-05-22T07:37:45.035Z,9.60
2019-05-22T07:40:15.650Z,8.10
2019-05-22T07:42:45.527Z,8.50
2019-05-22T07:45:15.929Z,9.00
2019-05-22T07:47:46.849Z,8.10
2019-05-22T07:50:17.495Z,7.47
2019-05-22T07:52:47.801Z,7.00
2019-05-22T07:55:19.805Z,6.10
2019-05-22T07:57:51.725Z,7.73
2019-05-22T08:00:21.839Z,6.33
2019-05-22T08:02:52.032Z,6.50
2019-05-22T08:05:23.482Z,7.07
2019-05-22T08:07:53.706Z,6.30
2019-05-22T08:10:23.767Z,6.50
2019-05-22T08:12:54.049Z,7.70
2019-05-22T08:15:26.130Z,7.40
2019-05-22T08:17:56.044Z,6.93
2019-05-22T08:20:26.168Z,7.00
2019-05-22T08:22:56.684Z,5.57
2019-05-22T08:25:26.565Z,6.90
2019-05-22T08:27:57.044Z,6.30
2019-05-22T08:30:26.775Z,6.10
2019-05-22T08:32:58.422Z,7.40
2019-05-22T08:35:28.443Z,6.60
2019-05-22T08:37:58.174Z,7.47
2019-05-22T08:40:28.017Z,6.53
2019-05-22T08:42:57.917Z,7.13
2019-05-22T08:45:28.773Z,8.47
2019-05-22T08:47:58.791Z,8.07
2019-05-22T08:50:31.018Z,9.63
2019-05-22T08:53:01.840Z,9.30
2019-05-22T08:55:35.205Z,8.60
2019-05-22T08:58:05.845Z,9.23
2019-05-22T09:00:35.618Z,8.57
2019-05-22T09:03:05.903Z,8.43
2019-05-22T09:05:35.473Z,7.83
2019-05-22T09:08:05.232Z,9.30
2019-05-22T09:10:35.320Z,10.30
2019-05-22T09:13:05.009Z,7.77
2019-05-22T09:15:34.880Z,7.63
2019-05-22T09:18:05.002Z,9.70
2019-05-22T09:20:48.648Z,6.73
2019-05-22T09:23:07.986Z,7.37
2019-05-22T09:25:37.554Z,6.60
2019-05-22T09:28:07.262Z,7.53
2019-05-22T09:30:37.549Z,7.57
2019-05-22T09:33:08.664Z,6.77
2019-05-22T09:35:38.125Z,6.43
2019-05-22T09:38:07.766Z,7.17
2019-05-22T09:40:37.405Z,5.80
2019-05-22T09:43:06.868Z,6.10
2019-05-22T09:45:36.795Z,6.47
2019-05-22T09:48:07.743Z,7.20
2019-05-22T09:50:37.756Z,6.57
2019-05-22T09:53:09.114Z,7.70
2019-05-22T09:55:39.644Z,7.47
2019-05-22T09:58:09.662Z,7.57
2019-05-22T10:00:39.221Z,8.67
2019-05-22T10:03:09.228Z,8.20
2019-05-22T10:05:39.055Z,8.93
2019-05-22T10:08:08.737Z,7.93
2019-05-22T10:10:38.544Z,10.10
2019-05-22T10:13:08.070Z,9.00
2019-05-22T10:15:37.614Z,8.70
2019-05-22T10:18:07.556Z,9.33
2019-05-22T10:20:37.417Z,8.10
2019-05-22T10:23:15.446Z,9.63
2019-05-22T10:25:38.895Z,9.40
2019-05-22T10:28:08.426Z,8.90
2019-05-22T10:30:38.258Z,9.80
2019-05-22T10:33:08.229Z,9.80
2019-05-22T10:35:39.445Z,9.90
2019-05-22T10:38:09.484Z,9.30
2019-05-22T10:40:39.138Z,9.07
2019-05-22T10:43:08.923Z,9.80
2019-05-22T10:45:39.009Z,9.43
2019-05-22T10:48:08.549Z,8.30
2019-05-22T10:50:38.930Z,8.73
2019-05-22T10:53:08.578Z,8.67
2019-05-22T10:55:38.713Z,8.40
2019-05-22T10:58:08.868Z,8.00
2019-05-22T11:00:38.396Z,8.40
2019-05-22T11:03:08.273Z,7.27
2019-05-22T11:05:37.846Z,7.80
2019-05-22T11:08:08.094Z,7.47
2019-05-22T11:10:37.905Z,6.97
2019-05-22T11:13:08.432Z,7.30
2019-05-22T11:15:38.152Z,7.80
2019-05-22T11:18:08.118Z,8.07
2019-05-22T11:20:38.078Z,7.17
2019-05-22T11:23:07.915Z,7.40
2019-05-22T11:25:37.757Z,6.23
2019-05-22T11:28:07.445Z,6.70
2019-05-22T11:30:37.840Z,6.30
2019-05-22T11:33:08.084Z,7.40
2019-05-22T11:35:37.931Z,7.07
2019-05-22T11:38:07.735Z,7.33
2019-05-22T11:40:37.312Z,9.33
2019-05-22T11:43:07.692Z,8.27
2019-05-22T11:45:37.245Z,7.50
2019-05-22T11:48:07.492Z,6.47
2019-05-22T11:50:38.055Z,6.83
2019-05-22T11:53:07.768Z,6.70
2019-05-22T11:55:44.987Z,6.43
2019-05-22T11:58:09.644Z,8.07
2019-05-22T12:00:39.576Z,7.80
2019-05-22T12:03:09.188Z,8.33
2019-05-22T12:05:40.028Z,7.73
2019-05-22T12:08:11.250Z,8.07
2019-05-22T12:10:40.992Z,7.50
2019-05-22T12:13:10.760Z,8.20
2019-05-22T12:15:40.738Z,8.53
2019-05-22T12:18:10.919Z,8.03
2019-05-22T12:20:40.396Z,9.10
2019-05-22T12:23:10.125Z,8.33
2019-05-22T12:25:39.864Z,8.67
2019-05-22T12:28:09.501Z,9.23
2019-05-22T12:30:40.120Z,8.10
2019-05-22T12:33:13.735Z,7.93
2019-05-22T12:35:43.866Z,8.03
2019-05-22T12:38:14.897Z,7.50
2019-05-22T12:40:45.215Z,6.63
2019-05-22T12:43:16.110Z,7.40
2019-05-22T12:45:46.087Z,6.30
2019-05-22T12:48:15.954Z,6.60
2019-05-22T12:50:46.465Z,7.13
2019-05-22T12:53:17.324Z,6.70
2019-05-22T12:55:47.381Z,6.70
2019-05-22T12:58:17.978Z,6.73
2019-05-22T13:00:47.780Z,6.27
2019-05-22T13:03:18.108Z,6.53
2019-05-22T13:05:49.464Z,5.97
2019-05-22T13:08:21.612Z,6.33
2019-05-22T13:10:52.912Z,6.07
2019-05-22T13:13:22.632Z,6.30
2019-05-22T13:15:52.356Z,5.73
2019-05-22T13:18:23.530Z,6.33
2019-05-22T13:20:54.153Z,7.53
2019-05-22T13:23:27.006Z,5.87
2019-05-22T13:25:57.503Z,6.23
2019-05-22T13:28:29.773Z,5.67
2019-05-22T13:31:00.549Z,6.07
2019-05-22T13:33:31.906Z,5.90
2019-05-22T13:36:02.943Z,5.87
2019-05-22T13:38:32.841Z,6.53
2019-05-22T13:41:03.103Z,5.57
2019-05-22T13:43:33.505Z,5.40
2019-05-22T13:46:03.364Z,5.20
2019-05-22T13:48:33.409Z,5.63
2019-05-22T13:51:03.225Z,6.37
2019-05-22T13:53:33.740Z,4.93
2019-05-22T13:56:04.482Z,5.87
2019-05-22T13:58:35.209Z,5.83
2019-05-22T14:01:04.905Z,4.97
2019-05-22T14:03:34.667Z,5.60
2019-05-22T14:06:04.646Z,5.90
2019-05-22T14:08:34.432Z,5.83
2019-05-22T14:11:04.517Z,6.53
2019-05-22T14:13:34.741Z,7.50
2019-05-22T14:16:04.470Z,6.93
2019-05-22T14:18:34.192Z,7.97
2019-05-22T14:21:03.681Z,6.17
2019-05-22T14:23:33.568Z,7.70
2019-05-22T14:26:03.522Z,6.37
2019-05-22T14:28:34.143Z,6.23
2019-05-22T14:31:04.539Z,6.10
2019-05-22T14:33:34.778Z,5.03
2019-05-22T14:36:04.994Z,5.97
2019-05-22T14:38:34.737Z,6.43
2019-05-22T14:41:04.812Z,6.10
2019-05-22T14:43:34.578Z,5.63
2019-05-22T14:46:04.370Z,5.37
2019-05-22T14:48:34.143Z,5.97
2019-05-22T14:51:03.901Z,5.67
2019-05-22T14:53:34.900Z,4.67
2019-05-22T14:56:10.590Z,5.40
2019-05-22T14:58:39.333Z,5.07
2019-05-22T15:01:09.864Z,4.10
2019-05-22T15:03:39.570Z,4.23
2019-05-22T15:06:09.522Z,4.40
2019-05-22T15:08:39.351Z,5.00
2019-05-22T15:11:10.153Z,3.77
2019-05-22T15:13:40.406Z,4.77
2019-05-22T15:16:11.026Z,4.57
2019-05-22T15:18:41.316Z,5.03
2019-05-22T15:21:11.472Z,4.50
2019-05-22T15:23:41.788Z,4.97
2019-05-22T15:26:11.490Z,5.00
2019-05-22T15:28:41.428Z,5.43
2019-05-22T15:31:10.967Z,5.00
2019-05-22T15:33:41.088Z,5.23
2019-05-22T15:36:13.439Z,5.47
2019-05-22T15:38:44.325Z,5.20
2019-05-22T15:41:14.053Z,5.60
2019-05-22T15:43:45.153Z,5.30
2019-05-22T15:46:15.897Z,5.40
2019-05-22T15:48:47.540Z,6.20
2019-05-22T15:51:21.098Z,6.03
2019-05-22T15:53:52.758Z,5.03
2019-05-22T15:56:22.925Z,5.07
2019-05-22T15:58:55.659Z,5.70
2019-05-22T16:01:27.937Z,5.23
2019-05-22T16:03:59.094Z,5.43
2019-05-22T16:06:30.033Z,5.17
2019-05-22T16:09:00.919Z,5.17
2019-05-22T16:11:31.461Z,4.40
2019-05-22T16:14:01.814Z,4.80
2019-05-22T16:16:33.989Z,4.70
2019-05-22T16:19:07.231Z,5.63
2019-05-22T16:21:40.420Z,4.63
2019-05-22T16:24:11.390Z,5.33
2019-05-22T16:26:41.798Z,6.03
2019-05-22T16:29:11.861Z,5.23
2019-05-22T16:31:43.656Z,6.30
2019-05-22T16:34:14.229Z,5.63
2019-05-22T16:36:45.229Z,5.37
2019-05-22T16:39:17.085Z,5.33
2019-05-22T16:41:47.434Z,4.70
2019-05-22T16:44:17.308Z,5.37
2019-05-22T16:46:48.572Z,4.87
2019-05-22T16:49:18.164Z,5.97
2019-05-22T16:51:48.633Z,5.93
2019-05-22T16:54:20.875Z,4.80
2019-05-22T16:56:51.318Z,6.10
2019-05-22T16:59:21.500Z,5.03
2019-05-22T17:02:00.333Z,4.93
2019-05-22T17:04:22.725Z,5.33
2019-05-22T17:06:52.245Z,5.87
2019-05-22T17:09:22.854Z,5.37
2019-05-22T17:11:52.873Z,4.90
2019-05-22T17:14:24.963Z,5.13
2019-05-22T17:16:54.587Z,4.70
2019-05-22T17:19:27.526Z,4.77
2019-05-22T17:21:55.601Z,4.50
2019-05-22T17:24:25.930Z,4.73
2019-05-22T17:26:56.258Z,4.50
2019-05-22T17:29:26.267Z,5.10
2019-05-22T17:31:56.189Z,5.37
2019-05-22T17:34:32.573Z,5.00
2019-05-22T17:37:09.594Z,3.87
2019-05-22T17:39:42.241Z,5.27
2019-05-22T17:42:16.189Z,5.13
2019-05-22T17:44:49.539Z,4.50
2019-05-22T17:47:21.789Z,4.47
2019-05-22T17:49:52.577Z,4.90
2019-05-22T17:52:23.252Z,4.90
2019-05-22T17:54:52.980Z,4.60
2019-05-22T17:57:24.315Z,4.37
2019-05-22T17:59:55.721Z,4.93
2019-05-22T18:02:26.944Z,4.60
2019-05-22T18:04:56.901Z,4.40
2019-05-22T18:07:26.725Z,4.87
2019-05-22T18:09:56.395Z,4.73
2019-05-22T18:12:26.971Z,4.57
2019-05-22T18:14:56.917Z,4.30
2019-05-22T18:17:27.326Z,4.80
2019-05-22T18:19:57.398Z,4.07
2019-05-22T18:22:30.003Z,4.03
2019-05-22T18:24:59.945Z,5.00
2019-05-22T18:27:30.716Z,4.57
2019-05-22T18:30:00.434Z,3.97
2019-05-22T18:32:32.102Z,4.37
2019-05-22T18:35:01.630Z,4.57
2019-05-22T18:37:31.797Z,4.13
2019-05-22T18:40:01.846Z,4.47
2019-05-22T18:42:31.987Z,4.20
2019-05-22T18:45:01.509Z,4.80
2019-05-22T18:47:32.136Z,6.00
2019-05-22T18:50:01.745Z,4.40
2019-05-22T18:52:40.452Z,5.57
2019-05-22T18:55:05.473Z,5.23
2019-05-22T18:57:35.666Z,4.67
2019-05-22T19:00:06.330Z,5.67
2019-05-22T19:02:36.648Z,4.00
2019-05-22T19:05:07.926Z,5.70
2019-05-22T19:07:37.584Z,4.67
2019-05-22T19:10:08.307Z,5.20
2019-05-22T19:12:37.792Z,4.87
2019-05-22T19:15:08.285Z,5.33
2019-05-22T19:17:38.509Z,5.50
2019-05-22T19:20:08.659Z,5.27
2019-05-22T19:22:38.680Z,5.83
2019-05-22T19:25:08.609Z,5.20
2019-05-22T19:27:38.240Z,5.97
2019-05-22T19:30:09.341Z,5.47
2019-05-22T19:32:39.034Z,5.50
2019-05-22T19:35:09.897Z,5.40
2019-05-22T19:37:40.618Z,5.43
2019-05-22T19:40:12.984Z,5.07
2019-05-22T19:42:43.662Z,5.87
2019-05-22T19:45:14.253Z,5.33
2019-05-22T19:47:52.725Z,4.80
2019-05-22T19:50:25.274Z,5.17
2019-05-22T19:52:56.724Z,6.30
2019-05-22T19:55:28.661Z,5.77
2019-05-22T19:57:59.909Z,6.20
2019-05-22T20:00:30.700Z,6.53
2019-05-22T20:03:00.997Z,5.83
2019-05-22T20:05:31.535Z,6.50
2019-05-22T20:08:01.257Z,6.10
2019-05-22T20:10:30.989Z,5.50
2019-05-22T20:13:01.589Z,6.50
2019-05-22T20:15:31.318Z,6.17
2019-05-22T20:18:01.876Z,6.43
2019-05-22T20:20:31.834Z,6.80
2019-05-22T20:23:01.722Z,5.97
2019-05-22T20:25:31.540Z,6.80
2019-05-22T20:28:02.821Z,5.80
2019-05-22T20:30:32.724Z,6.80
2019-05-22T20:33:03.765Z,7.20
2019-05-22T20:35:34.537Z,7.03
2019-05-22T20:38:04.497Z,6.73
2019-05-22T20:40:35.431Z,7.20
2019-05-22T20:43:08.027Z,6.70
2019-05-22T20:45:40.886Z,6.50
2019-05-22T20:48:19.251Z,7.00
2019-05-22T20:50:49.820Z,7.10
2019-05-22T20:53:19.776Z,6.97
2019-05-22T20:55:50.877Z,6.47
2019-05-22T20:58:22.887Z,6.10
2019-05-22T21:00:53.228Z,7.30
2019-05-22T21:03:23.384Z,6.90
2019-05-22T21:05:55.655Z,6.73
2019-05-22T21:08:26.676Z,6.17
2019-05-22T21:10:57.479Z,6.67
2019-05-22T21:13:27.130Z,7.97
2019-05-22T21:15:57.052Z,7.73
2019-05-22T21:18:29.791Z,7.93
2019-05-22T21:20:59.388Z,7.33
2019-05-22T21:23:29.736Z,7.37
2019-05-22T21:25:59.670Z,7.43
2019-05-22T21:28:29.245Z,7.33
2019-05-22T21:30:59.826Z,7.23
2019-05-22T21:33:30.048Z,7.83
2019-05-22T21:36:01.468Z,7.03
2019-05-22T21:38:31.222Z,6.83
2019-05-22T21:41:01.124Z,7.27
2019-05-22T21:43:31.264Z,6.43
2019-05-22T21:46:01.166Z,7.83
2019-05-22T21:48:31.581Z,6.23
2019-05-22T21:51:02.659Z,6.43
2019-05-22T21:53:33.299Z,7.23
2019-05-22T21:56:06.281Z,7.47
2019-05-22T21:58:37.049Z,7.30
2019-05-22T22:01:11.245Z,6.90
2019-05-22T22:03:46.581Z,7.20
2019-05-22T22:06:17.407Z,6.67
2019-05-22T22:08:47.779Z,7.30
2019-05-22T22:11:18.348Z,6.73
2019-05-22T22:13:49.095Z,7.43
2019-05-22T22:16:18.692Z,7.47
2019-05-22T22:18:49.208Z,7.90
2019-05-22T22:21:18.988Z,7.00
2019-05-22T22:23:48.830Z,7.53
2019-05-22T22:26:26.066Z,7.37
2019-05-22T22:28:50.708Z,6.77
2019-05-22T22:31:21.898Z,7.87
2019-05-22T22:33:55.064Z,8.33
2019-05-22T22:36:25.339Z,7.00
2019-05-22T22:38:55.666Z,8.03
2019-05-22T22:41:26.362Z,7.57
2019-05-22T22:43:57.019Z,6.50
2019-05-22T22:46:46.500Z,7.60
2019-05-22T22:49:18.584Z,6.20
2019-05-22T22:51:48.984Z,7.10
2019-05-22T22:54:20.325Z,6.00
2019-05-22T22:56:50.386Z,6.17
2019-05-22T22:59:21.049Z,6.70
2019-05-22T23:01:53.628Z,6.30
2019-05-22T23:04:26.501Z,6.57
2019-05-22T23:06:59.557Z,6.40
2019-05-22T23:09:29.360Z,5.87
2019-05-22T23:12:00.448Z,7.03
2019-05-22T23:14:32.785Z,6.97
2019-05-22T23:17:03.659Z,6.97
2019-05-22T23:19:33.537Z,6.63
2019-05-22T23:22:03.219Z,7.37
2019-05-22T23:24:34.866Z,7.30
2019-05-22T23:27:06.642Z,7.70
2019-05-22T23:29:38.520Z,7.40
2019-05-22T23:32:09.328Z,6.73
2019-05-22T23:34:38.789Z,8.83
2019-05-22T23:37:10.764Z,7.90
2019-05-22T23:39:40.740Z,8.97
2019-05-22T23:42:14.257Z,6.63
2019-05-22T23:44:46.237Z,8.00
2019-05-22T23:47:16.651Z,8.87
2019-05-22T23:49:46.692Z,7.60
2019-05-22T23:52:16.565Z,7.77
2019-05-22T23:54:48.293Z,8.23
2019-05-22T23:57:18.292Z,8.77
2019-05-22T23:59:49.986Z,7.40
